Aérodrome :
LOGIN :

S'inscrire | Disclaimer

   EN    FR    IT 

 










Légende :    VFR   VFR Marginal   IFR   IFR Intensif   IFR Très Intensif
Visi : 
Plafond : 
>= 8 km
>= 3000ft
5 à 8 km
1000 à 3000 ft
1500m à 5 km
500 à 1000 ft
800 à 1500m
200 à 500 ft
< 800m
< 200 ft
Symboles :   Orages  Brouillard  Fortes neiges  Fortes précipitations  Vent > 20 kt
SIGMETs :   Divers  Orages  Givrage  Turbulence  Onde Orograph.  Cendres Volcan.







- Altitude de l'aérodrome : 233 ft
- Code IATA : REU


LERS - Reus Tarragona

DERNIER METAR :
  • 200830Z 03005KT 340V070 9999 SCT039 BKN047 18/13 Q1018

METARs EXPIRÉS :
  • 200800Z 36005KT 340V050 9999 BKN040 BKN050 18/13 Q1017
  • 200730Z 00000KT 9999 BKN039 BKN049 17/14 Q1017
  • 200700Z 03005KT 350V070 9999 BKN039 BKN049 17/13 Q1016
  • 200630Z 02005KT 340V050 9999 BKN040 BKN050 16/13 Q1016
  • 200600Z 03006KT 9999 BKN040 BKN048 16/13 Q1015

TAF TAF LERS
Valide du 20 à 09h jusqu'au 21 à 09h UTC


200800Z 2009/2109 VRB03KT 9999 SCT025 TX24/2013Z TN13/2106Z
Pas de NOTAMs connus pour ce terrain.



MET'MAP, la Météo Aéronautique d'un coup d'oeil ! - Copyright ORBIFLY Décembre 2007 - Disclaimer

ORBIFLY MET'MAP TEAM :

Programmation & Développement : Alexandra Zaïnal
Conception & Développement : Baudouin d'Aumeries
Co-Programmation & Développement : Marc-Olivier Méhu
Soutien technique & logistique : Manuel Goepfert

Contact : metmap@orbifly.com




SOURCES & CREDITS :

   NOAA